Terminal Aerodrome Forecast
Issued by NWS Shreveport, LA

Home | Current Version | Previous Version | Text Only | Print | Product List | Glossary On
Versions: 1 2 3 4 5 6 7 8 9 10 11 12 13 14 15 16 17 18 19 20 21 22 23 24 25 26 27
023
FTUS44 KSHV 181751
TAFMLU
TAF
KMLU 181751Z 1818/1918 10005KT P6SM VCSH OVC006
     FM190000 15004KT P6SM OVC015
     FM190300 16005KT 4SM BR OVC020
     FM191500 17010KT P6SM OVC025=

USA.gov is the U.S. government's official web portal to all federal, state and local government web resources and services.